Time;durP1;ratioP1;P1;durP2;ratioP2;P2;SDS_P1;SDS_P2;PMS_P1;PMS_P2;Temp;Humidity;BMP_temperature;BMP_pressure;BME280_temperature;BME280_humidity;BME280_pressure;Samples;Min_cycle;Max_cycle;Signal;HPM_P1;HPM_P2
2023/10/31 00:00:29;;;;;;;;;;;18.50;79.90;;;;;;5017705;27;94660;-43
2023/10/31 00:02:55;;;;;;;;;;;18.50;80.10;;;;;;5019303;27;94614;-44
2023/10/31 00:05:20;;;;;;;;;;;18.50;80.20;;;;;;5015004;27;93841;-45
2023/10/31 00:07:46;;;;;;;;;;;18.50;80.10;;;;;;5019106;27;93933;-44
2023/10/31 00:10:11;;;;;;;;;;;18.50;80.20;;;;;;5018357;27;94870;-44
2023/10/31 00:12:38;;;;;;;;;;;18.50;80.10;;;;;;5011127;27;96151;-44
2023/10/31 00:15:04;;;;;;;;;;;18.40;79.80;;;;;;5011502;27;94755;-45
2023/10/31 00:17:29;;;;;;;;;;;18.40;79.90;;;;;;5001385;27;96540;-44
2023/10/31 00:19:56;;;;;;;;;;;18.50;80.10;;;;;;5017748;27;94440;-44
2023/10/31 00:22:22;;;;;;;;;;;18.40;80.10;;;;;;5011753;27;97117;-44
2023/10/31 00:24:47;;;;;;;;;;;18.40;80.20;;;;;;5020182;27;94626;-44
2023/10/31 00:27:14;;;;;;;;;;;18.40;80.10;;;;;;5017501;27;95272;-44
2023/10/31 00:29:40;;;;;;;;;;;18.40;80.20;;;;;;5027900;27;94875;-44
2023/10/31 00:32:05;;;;;;;;;;;18.30;80.20;;;;;;5033492;27;95048;-44
2023/10/31 00:34:31;;;;;;;;;;;18.30;80.10;;;;;;5033147;27;96140;-44
2023/10/31 00:36:56;;;;;;;;;;;18.30;80.10;;;;;;5038658;27;95931;-44
2023/10/31 00:39:22;;;;;;;;;;;18.30;80.00;;;;;;5038205;27;94606;-44
2023/10/31 00:41:47;;;;;;;;;;;18.40;80.10;;;;;;5045077;27;94554;-43
2023/10/31 00:44:13;;;;;;;;;;;18.30;80.10;;;;;;5036009;27;96564;-45
2023/10/31 00:46:39;;;;;;;;;;;18.30;80.10;;;;;;5041318;27;94888;-42
2023/10/31 00:49:04;;;;;;;;;;;18.30;80.20;;;;;;5031001;27;95144;-45
2023/10/31 00:51:30;;;;;;;;;;;18.30;80.00;;;;;;5041028;27;94749;-44
2023/10/31 00:53:55;;;;;;;;;;;18.30;80.10;;;;;;5035998;27;94280;-43
2023/10/31 00:56:21;;;;;;;;;;;18.30;80.10;;;;;;5039206;27;95632;-43
2023/10/31 00:58:47;;;;;;;;;;;18.30;80.00;;;;;;5038692;27;94607;-43
2023/10/31 01:01:12;;;;;;;;;;;18.30;79.90;;;;;;5036416;27;96132;-44
2023/10/31 01:03:38;;;;;;;;;;;18.30;80.00;;;;;;5037107;27;96483;-44
2023/10/31 01:06:03;;;;;;;;;;;18.30;80.00;;;;;;5044714;27;94992;-44
2023/10/31 01:08:29;;;;;;;;;;;18.30;80.00;;;;;;5034315;27;95026;-44
2023/10/31 01:10:55;;;;;;;;;;;18.30;80.00;;;;;;5041870;27;94942;-44
2023/10/31 01:13:21;;;;;;;;;;;18.20;79.90;;;;;;5033192;27;96316;-43
2023/10/31 01:15:46;;;;;;;;;;;18.20;80.00;;;;;;5037037;27;95056;-45
2023/10/31 01:18:12;;;;;;;;;;;18.20;80.00;;;;;;5039735;27;94299;-44
2023/10/31 01:20:38;;;;;;;;;;;18.20;80.00;;;;;;5039538;27;94678;-44
2023/10/31 01:23:03;;;;;;;;;;;18.20;80.00;;;;;;5035210;27;94021;-43
2023/10/31 01:25:29;;;;;;;;;;;18.20;80.00;;;;;;5035840;27;95929;-45
2023/10/31 01:27:54;;;;;;;;;;;18.20;80.00;;;;;;5036666;27;95726;-44
2023/10/31 01:30:20;;;;;;;;;;;18.20;80.00;;;;;;5036032;27;94590;-44
2023/10/31 01:32:45;;;;;;;;;;;18.20;80.00;;;;;;5044396;27;94412;-44
2023/10/31 01:35:11;;;;;;;;;;;18.10;80.00;;;;;;5036742;27;95161;-44
2023/10/31 01:37:37;;;;;;;;;;;18.10;80.50;;;;;;5040278;27;95560;-44
2023/10/31 01:40:03;;;;;;;;;;;18.10;80.00;;;;;;5017466;27;99243;-43
2023/10/31 01:42:29;;;;;;;;;;;18.10;80.00;;;;;;5035635;27;93706;-41
2023/10/31 01:44:54;;;;;;;;;;;18.10;80.00;;;;;;5025516;27;94333;-43
2023/10/31 01:47:21;;;;;;;;;;;18.10;80.00;;;;;;5033206;27;95001;-44
2023/10/31 01:49:46;;;;;;;;;;;18.10;80.00;;;;;;5035242;27;96897;-43
2023/10/31 01:52:18;;;;;;;;;;;18.10;80.00;;;;;;5035831;27;94230;-43
2023/10/31 01:54:43;;;;;;;;;;;18.00;80.00;;;;;;5036003;27;94318;-44
2023/10/31 01:57:09;;;;;;;;;;;18.00;80.00;;;;;;5038753;27;95080;-44
2023/10/31 01:59:35;;;;;;;;;;;18.00;80.00;;;;;;5039185;27;94307;-42
2023/10/31 02:02:00;;;;;;;;;;;18.00;80.00;;;;;;5037303;27;94866;-44
2023/10/31 02:04:26;;;;;;;;;;;18.00;80.00;;;;;;5035374;27;94594;-44
2023/10/31 02:06:51;;;;;;;;;;;18.00;80.00;;;;;;5037087;27;94747;-43
2023/10/31 02:09:17;;;;;;;;;;;18.00;80.00;;;;;;5027865;27;98588;-44
2023/10/31 02:11:42;;;;;;;;;;;18.00;80.10;;;;;;5040767;27;94479;-43
2023/10/31 02:14:08;;;;;;;;;;;18.00;80.10;;;;;;5033327;27;95959;-44
2023/10/31 02:16:33;;;;;;;;;;;18.00;80.20;;;;;;5037203;27;94521;-44
2023/10/31 02:18:59;;;;;;;;;;;17.90;80.10;;;;;;5038682;27;94342;-44
2023/10/31 02:21:25;;;;;;;;;;;17.90;79.90;;;;;;5036430;27;95433;-44
2023/10/31 02:23:57;;;;;;;;;;;17.90;80.00;;;;;;5036605;27;94719;-44
2023/10/31 02:26:22;;;;;;;;;;;17.90;79.90;;;;;;5038279;27;94835;-44
2023/10/31 02:28:48;;;;;;;;;;;17.90;80.00;;;;;;5038027;27;94751;-43
2023/10/31 02:31:13;;;;;;;;;;;17.90;80.00;;;;;;5038498;27;94278;-43
2023/10/31 02:33:39;;;;;;;;;;;17.90;80.00;;;;;;5039028;27;95215;-43
2023/10/31 02:36:05;;;;;;;;;;;17.90;80.00;;;;;;5042041;27;94656;-44
2023/10/31 02:38:30;;;;;;;;;;;17.80;80.00;;;;;;5039616;27;100059;-44
2023/10/31 02:40:55;;;;;;;;;;;17.80;80.00;;;;;;5041384;27;94743;-43
2023/10/31 02:43:21;;;;;;;;;;;17.80;80.00;;;;;;5043112;27;94669;-45
2023/10/31 02:45:47;;;;;;;;;;;17.80;80.10;;;;;;5042203;27;94642;-43
2023/10/31 02:48:12;;;;;;;;;;;17.80;80.00;;;;;;5040167;27;95084;-44
2023/10/31 02:50:38;;;;;;;;;;;17.80;80.00;;;;;;5042470;27;95148;-44
2023/10/31 02:53:03;;;;;;;;;;;17.80;80.00;;;;;;5045816;27;95037;-44
2023/10/31 02:55:29;;;;;;;;;;;17.80;80.00;;;;;;5038166;27;97954;-44
2023/10/31 02:57:54;;;;;;;;;;;17.80;79.90;;;;;;5037405;27;94289;-44
2023/10/31 03:00:20;;;;;;;;;;;17.80;79.90;;;;;;5039176;27;94091;-43
2023/10/31 03:02:45;;;;;;;;;;;17.80;79.90;;;;;;5042347;27;95461;-44
2023/10/31 03:05:10;;;;;;;;;;;17.80;79.90;;;;;;5034602;27;94922;-44
2023/10/31 03:07:36;;;;;;;;;;;17.80;79.90;;;;;;5036991;27;93982;-43
2023/10/31 03:10:02;;;;;;;;;;;17.80;80.00;;;;;;5038438;27;94800;-42
2023/10/31 03:12:28;;;;;;;;;;;17.70;79.80;;;;;;5032299;27;96257;-44
2023/10/31 03:14:53;;;;;;;;;;;17.70;79.80;;;;;;5045436;27;95044;-44
2023/10/31 03:17:19;;;;;;;;;;;17.70;79.80;;;;;;5044989;27;94602;-44
2023/10/31 03:19:45;;;;;;;;;;;17.70;79.80;;;;;;5036816;27;94094;-44
2023/10/31 03:22:10;;;;;;;;;;;17.70;79.90;;;;;;5036409;27;94311;-44
2023/10/31 03:24:36;;;;;;;;;;;17.70;80.00;;;;;;5038661;27;96098;-44
2023/10/31 03:27:01;;;;;;;;;;;17.70;80.00;;;;;;5040187;27;95340;-43
2023/10/31 03:29:27;;;;;;;;;;;17.70;80.00;;;;;;5040208;27;94993;-44
2023/10/31 03:31:52;;;;;;;;;;;17.70;80.00;;;;;;5039308;27;95969;-44
2023/10/31 03:34:18;;;;;;;;;;;17.60;79.90;;;;;;5037997;27;95328;-44
2023/10/31 03:36:43;;;;;;;;;;;17.60;79.90;;;;;;5038056;27;97697;-43
2023/10/31 03:39:09;;;;;;;;;;;17.60;79.80;;;;;;5032171;27;94959;-43
2023/10/31 03:41:35;;;;;;;;;;;17.60;79.90;;;;;;5037511;27;96043;-43
2023/10/31 03:44:00;;;;;;;;;;;17.60;79.90;;;;;;5036070;27;94617;-43
2023/10/31 03:46:26;;;;;;;;;;;17.60;80.00;;;;;;5041661;27;93958;-44
2023/10/31 03:48:52;;;;;;;;;;;17.60;79.90;;;;;;5039310;27;94338;-44
2023/10/31 03:51:17;;;;;;;;;;;17.60;79.90;;;;;;5039134;27;96251;-44
2023/10/31 03:53:43;;;;;;;;;;;17.60;79.80;;;;;;5037514;27;94500;-45
2023/10/31 03:56:08;;;;;;;;;;;17.50;79.80;;;;;;5040302;27;94704;-42
2023/10/31 03:58:34;;;;;;;;;;;17.50;79.80;;;;;;5044987;27;94692;-44
2023/10/31 04:00:59;;;;;;;;;;;17.50;79.90;;;;;;5038571;27;94368;-43
2023/10/31 04:03:25;;;;;;;;;;;17.50;79.90;;;;;;5041477;27;94830;-43
2023/10/31 04:05:56;;;;;;;;;;;17.50;79.90;;;;;;5045039;27;94800;-43
2023/10/31 04:08:22;;;;;;;;;;;17.50;79.80;;;;;;5040829;27;95138;-44
2023/10/31 04:10:47;;;;;;;;;;;17.50;79.80;;;;;;5035881;27;94656;-43
2023/10/31 04:13:13;;;;;;;;;;;17.50;79.90;;;;;;5037435;27;94679;-45
2023/10/31 04:15:38;;;;;;;;;;;17.50;79.90;;;;;;5039972;27;95580;-45
2023/10/31 04:18:04;;;;;;;;;;;17.50;79.90;;;;;;5041280;27;94767;-44
2023/10/31 04:20:29;;;;;;;;;;;17.40;79.80;;;;;;5036487;27;94677;-45
2023/10/31 04:22:55;;;;;;;;;;;17.50;79.90;;;;;;5039800;27;94679;-44
2023/10/31 04:25:20;;;;;;;;;;;17.50;79.80;;;;;;5038000;27;93945;-45
2023/10/31 04:27:45;;;;;;;;;;;17.40;79.80;;;;;;5037364;27;94678;-44
2023/10/31 04:30:11;;;;;;;;;;;17.40;79.80;;;;;;5038192;27;94328;-45
2023/10/31 04:32:37;;;;;;;;;;;17.40;79.70;;;;;;5031986;27;95188;-44
2023/10/31 04:35:02;;;;;;;;;;;17.50;79.80;;;;;;5035450;27;95803;-45
2023/10/31 04:37:28;;;;;;;;;;;17.50;79.60;;;;;;5038167;27;94471;-45
2023/10/31 04:39:53;;;;;;;;;;;17.50;79.60;;;;;;5033541;27;96856;-44
2023/10/31 04:42:20;;;;;;;;;;;17.40;79.70;;;;;;5039029;27;95325;-44
2023/10/31 04:44:45;;;;;;;;;;;17.40;79.70;;;;;;5037675;27;98145;-44
2023/10/31 04:47:11;;;;;;;;;;;17.40;79.80;;;;;;5037244;27;94736;-44
2023/10/31 04:49:36;;;;;;;;;;;17.40;79.70;;;;;;5031171;27;98352;-45
2023/10/31 04:52:02;;;;;;;;;;;17.40;79.70;;;;;;5010913;27;96099;-45
2023/10/31 04:54:28;;;;;;;;;;;17.40;79.70;;;;;;5014013;27;95775;-44
2023/10/31 04:56:53;;;;;;;;;;;17.40;79.80;;;;;;5032372;27;94402;-44
2023/10/31 04:59:18;;;;;;;;;;;17.40;79.70;;;;;;5033389;27;96837;-45
2023/10/31 05:01:50;;;;;;;;;;;17.40;79.70;;;;;;5025032;27;95289;-44
2023/10/31 05:04:17;;;;;;;;;;;17.40;79.80;;;;;;5027610;27;95146;-45
2023/10/31 05:06:42;;;;;;;;;;;17.40;79.80;;;;;;5030077;27;94703;-45
2023/10/31 05:09:07;;;;;;;;;;;17.40;79.80;;;;;;5032152;27;95002;-44
2023/10/31 05:11:33;;;;;;;;;;;17.40;79.90;;;;;;5027874;27;94722;-45
2023/10/31 05:13:59;;;;;;;;;;;17.40;79.80;;;;;;5030352;27;94811;-44
2023/10/31 05:16:24;;;;;;;;;;;17.40;79.90;;;;;;5027487;27;98723;-44
2023/10/31 05:18:50;;;;;;;;;;;17.40;79.70;;;;;;5030469;27;95664;-44
2023/10/31 05:21:18;;;;;;;;;;;17.40;79.80;;;;;;5029302;27;95267;-43
2023/10/31 05:23:44;;;;;;;;;;;17.30;80.40;;;;;;5032888;27;95244;-44
2023/10/31 05:26:09;;;;;;;;;;;17.30;79.90;;;;;;5033557;27;96916;-43
2023/10/31 05:28:35;;;;;;;;;;;17.30;79.70;;;;;;5028854;27;96540;-44
2023/10/31 05:31:00;;;;;;;;;;;17.30;79.70;;;;;;5027785;27;96264;-45
2023/10/31 05:33:26;;;;;;;;;;;17.30;79.80;;;;;;5033023;27;95708;-44
2023/10/31 05:35:51;;;;;;;;;;;17.30;79.80;;;;;;5020250;27;95446;-44
2023/10/31 05:38:17;;;;;;;;;;;17.30;79.90;;;;;;5027304;27;94784;-44
2023/10/31 05:40:42;;;;;;;;;;;17.30;79.90;;;;;;5026398;27;94768;-44
2023/10/31 05:43:08;;;;;;;;;;;17.30;79.80;;;;;;5029007;27;95186;-44
2023/10/31 05:45:33;;;;;;;;;;;17.30;79.70;;;;;;5037702;27;94028;-44
2023/10/31 05:47:59;;;;;;;;;;;17.30;79.70;;;;;;5032816;27;95158;-44
2023/10/31 05:50:24;;;;;;;;;;;17.30;79.80;;;;;;5026265;27;95241;-44
2023/10/31 05:52:50;;;;;;;;;;;17.30;79.60;;;;;;5031548;27;97713;-44
2023/10/31 05:55:15;;;;;;;;;;;17.30;79.70;;;;;;5031783;27;95677;-44
2023/10/31 05:57:41;;;;;;;;;;;17.30;79.60;;;;;;5033298;27;95217;-44
2023/10/31 06:00:08;;;;;;;;;;;17.30;79.60;;;;;;5031319;27;94502;-44
2023/10/31 06:02:33;;;;;;;;;;;17.20;79.50;;;;;;5030785;27;94220;-44
2023/10/31 06:04:59;;;;;;;;;;;17.20;79.50;;;;;;5028981;27;94408;-44
2023/10/31 06:07:24;;;;;;;;;;;17.20;79.60;;;;;;5030817;27;94735;-44
2023/10/31 06:09:50;;;;;;;;;;;17.20;79.50;;;;;;5036988;27;95206;-44
2023/10/31 06:12:15;;;;;;;;;;;17.20;79.50;;;;;;5027198;27;94641;-44
2023/10/31 06:14:41;;;;;;;;;;;17.20;79.50;;;;;;5032853;27;94443;-44
2023/10/31 06:17:07;;;;;;;;;;;17.20;79.40;;;;;;5023046;27;94975;-44
2023/10/31 06:19:36;;;;;;;;;;;17.20;79.50;;;;;;5025525;27;94930;-44
2023/10/31 06:22:01;;;;;;;;;;;17.20;79.30;;;;;;5027380;27;96190;-43
2023/10/31 06:24:27;;;;;;;;;;;17.20;79.30;;;;;;5027064;27;94992;-44
2023/10/31 06:26:52;;;;;;;;;;;17.20;79.30;;;;;;5026589;27;94618;-44
2023/10/31 06:29:18;;;;;;;;;;;17.20;79.30;;;;;;5026908;27;94686;-44
2023/10/31 06:31:43;;;;;;;;;;;17.20;79.40;;;;;;5029043;27;95571;-44
2023/10/31 06:34:09;;;;;;;;;;;17.20;79.40;;;;;;5034432;27;94498;-45
2023/10/31 06:36:35;;;;;;;;;;;17.20;79.40;;;;;;5030664;27;94112;-44
2023/10/31 06:39:00;;;;;;;;;;;17.20;79.40;;;;;;5029309;27;94671;-44
2023/10/31 06:41:26;;;;;;;;;;;17.20;79.40;;;;;;5031413;27;95542;-44
2023/10/31 06:43:51;;;;;;;;;;;17.20;79.30;;;;;;5035694;27;94349;-43
2023/10/31 06:46:17;;;;;;;;;;;17.20;79.30;;;;;;5029073;27;95018;-44
2023/10/31 06:48:42;;;;;;;;;;;17.20;79.40;;;;;;5035133;27;99147;-45
2023/10/31 06:51:08;;;;;;;;;;;17.20;79.40;;;;;;5036966;27;95333;-44
2023/10/31 06:53:34;;;;;;;;;;;17.20;79.30;;;;;;5033109;27;93972;-44
2023/10/31 06:56:00;;;;;;;;;;;17.20;79.30;;;;;;5039350;27;94689;-44
2023/10/31 06:58:25;;;;;;;;;;;17.20;79.20;;;;;;5035754;27;94763;-45
2023/10/31 07:00:51;;;;;;;;;;;17.20;79.20;;;;;;5039576;27;95100;-44
2023/10/31 07:03:17;;;;;;;;;;;17.20;79.20;;;;;;5037517;27;94703;-45
2023/10/31 07:05:42;;;;;;;;;;;17.20;79.20;;;;;;5038746;27;96223;-44
2023/10/31 07:08:08;;;;;;;;;;;17.20;79.10;;;;;;5034710;27;94332;-45
2023/10/31 07:10:33;;;;;;;;;;;17.20;79.10;;;;;;5036875;27;94705;-44
2023/10/31 07:12:59;;;;;;;;;;;17.20;79.10;;;;;;5034298;27;94015;-44
2023/10/31 07:15:25;;;;;;;;;;;17.20;79.20;;;;;;5022540;27;95049;-45
2023/10/31 07:17:51;;;;;;;;;;;17.20;79.10;;;;;;5036529;27;94753;-45
2023/10/31 07:20:16;;;;;;;;;;;17.20;79.00;;;;;;5030868;27;95597;-44
2023/10/31 07:22:42;;;;;;;;;;;17.20;79.00;;;;;;5035291;27;94790;-45
2023/10/31 07:25:08;;;;;;;;;;;17.20;78.90;;;;;;5034498;27;94640;-46
2023/10/31 07:27:33;;;;;;;;;;;17.20;79.00;;;;;;5037456;27;95063;-44
2023/10/31 07:29:59;;;;;;;;;;;17.20;79.00;;;;;;5029046;27;95764;-44
2023/10/31 07:32:25;;;;;;;;;;;17.20;78.90;;;;;;5034287;27;95367;-44
2023/10/31 07:34:51;;;;;;;;;;;17.20;78.80;;;;;;5032102;27;95537;-45
2023/10/31 07:37:16;;;;;;;;;;;17.20;78.90;;;;;;5034363;27;94736;-44
2023/10/31 07:39:42;;;;;;;;;;;17.20;79.50;;;;;;5032445;27;95260;-44
2023/10/31 07:42:07;;;;;;;;;;;17.20;78.80;;;;;;5016179;27;96814;-44
2023/10/31 07:44:33;;;;;;;;;;;17.20;78.70;;;;;;5037046;27;94326;-45
2023/10/31 07:46:58;;;;;;;;;;;17.20;78.80;;;;;;5038524;27;96731;-44
2023/10/31 07:49:24;;;;;;;;;;;17.20;78.70;;;;;;5034917;27;95296;-44
2023/10/31 07:51:49;;;;;;;;;;;17.20;78.70;;;;;;5038361;27;95021;-44
2023/10/31 07:54:16;;;;;;;;;;;17.20;78.80;;;;;;5030818;27;95167;-44
2023/10/31 07:56:41;;;;;;;;;;;17.20;79.00;;;;;;5024724;27;99799;-45
2023/10/31 07:59:10;;;;;;;;;;;17.20;79.00;;;;;;5031414;27;94581;-45
2023/10/31 08:01:36;;;;;;;;;;;17.20;78.90;;;;;;5031110;27;94885;-45
2023/10/31 08:04:02;;;;;;;;;;;17.20;78.90;;;;;;5031482;27;94275;-43
2023/10/31 08:06:27;;;;;;;;;;;17.20;78.80;;;;;;5033193;27;95035;-44
2023/10/31 08:08:53;;;;;;;;;;;17.20;78.90;;;;;;5029743;27;94868;-45
2023/10/31 08:11:18;;;;;;;;;;;17.20;78.90;;;;;;5020545;27;94537;-44
2023/10/31 08:13:44;;;;;;;;;;;17.20;78.80;;;;;;5034900;27;95383;-45
2023/10/31 08:16:09;;;;;;;;;;;17.20;78.90;;;;;;5041529;27;94574;-45
2023/10/31 08:18:35;;;;;;;;;;;17.20;78.80;;;;;;5042174;27;97580;-45
2023/10/31 08:21:01;;;;;;;;;;;17.20;78.90;;;;;;5031256;27;97532;-45
2023/10/31 08:23:28;;;;;;;;;;;17.30;79.00;;;;;;5029950;27;94913;-45
2023/10/31 08:25:54;;;;;;;;;;;17.30;79.00;;;;;;5028881;27;99368;-45
2023/10/31 08:28:19;;;;;;;;;;;17.20;78.80;;;;;;5031438;27;94719;-44
2023/10/31 08:30:46;;;;;;;;;;;17.30;78.90;;;;;;5030013;27;94755;-45
2023/10/31 08:33:11;;;;;;;;;;;17.30;79.10;;;;;;5032449;27;96532;-45
2023/10/31 08:35:37;;;;;;;;;;;17.30;79.10;;;;;;5031057;27;94354;-45
2023/10/31 08:38:03;;;;;;;;;;;17.20;79.00;;;;;;5030085;27;96367;-44
2023/10/31 08:40:28;;;;;;;;;;;17.20;79.00;;;;;;5011304;27;95702;-45
2023/10/31 08:42:54;;;;;;;;;;;17.30;79.00;;;;;;5031627;27;96064;-44
2023/10/31 08:45:20;;;;;;;;;;;17.20;79.00;;;;;;5039157;27;94428;-44
2023/10/31 08:47:45;;;;;;;;;;;17.20;79.20;;;;;;5036872;27;95059;-45
2023/10/31 08:50:12;;;;;;;;;;;17.20;79.30;;;;;;5031044;27;94311;-45
2023/10/31 08:52:37;;;;;;;;;;;17.20;79.30;;;;;;5031563;27;95505;-45
2023/10/31 08:55:03;;;;;;;;;;;17.20;79.50;;;;;;5032705;27;95260;-44
2023/10/31 08:57:29;;;;;;;;;;;17.30;79.70;;;;;;5032863;27;94899;-45
2023/10/31 08:59:55;;;;;;;;;;;17.20;79.70;;;;;;5034618;27;94556;-44
2023/10/31 09:02:20;;;;;;;;;;;17.20;80.50;;;;;;5033935;27;95204;-43
2023/10/31 09:04:46;;;;;;;;;;;17.20;80.60;;;;;;5036989;27;95870;-45
2023/10/31 09:07:11;;;;;;;;;;;17.20;80.70;;;;;;5031100;27;95683;-45
2023/10/31 09:09:37;;;;;;;;;;;17.20;80.70;;;;;;5028498;27;94577;-45
2023/10/31 09:12:02;;;;;;;;;;;17.20;80.60;;;;;;5021873;27;95246;-45
2023/10/31 09:14:28;;;;;;;;;;;17.20;80.60;;;;;;5032820;27;95209;-45
2023/10/31 09:16:53;;;;;;;;;;;17.30;80.90;;;;;;5033579;27;95958;-45
2023/10/31 09:19:19;;;;;;;;;;;17.30;80.70;;;;;;5031411;27;101137;-45
2023/10/31 09:21:45;;;;;;;;;;;17.30;80.50;;;;;;5033611;27;96329;-45
2023/10/31 09:24:11;;;;;;;;;;;17.30;80.60;;;;;;5028654;27;94208;-45
2023/10/31 09:26:37;;;;;;;;;;;17.30;80.50;;;;;;5031487;27;94772;-44
2023/10/31 09:29:03;;;;;;;;;;;17.30;80.40;;;;;;5036766;27;95309;-45
2023/10/31 09:31:29;;;;;;;;;;;17.30;80.50;;;;;;5023544;27;95997;-45
2023/10/31 09:33:54;;;;;;;;;;;17.30;80.40;;;;;;5032873;27;99091;-45
2023/10/31 09:36:20;;;;;;;;;;;17.30;80.50;;;;;;5035956;27;94858;-45
2023/10/31 09:38:45;;;;;;;;;;;17.30;80.30;;;;;;5030886;27;94774;-45
2023/10/31 09:41:12;;;;;;;;;;;17.30;80.50;;;;;;5027404;27;94353;-44
2023/10/31 09:43:37;;;;;;;;;;;17.30;80.30;;;;;;5025444;27;100631;-45
2023/10/31 09:46:03;;;;;;;;;;;17.30;80.40;;;;;;5040164;27;95923;-45
2023/10/31 09:48:29;;;;;;;;;;;17.40;80.60;;;;;;5039216;27;93837;-45
2023/10/31 09:50:55;;;;;;;;;;;17.40;80.30;;;;;;5037104;27;99038;-44
2023/10/31 09:53:21;;;;;;;;;;;17.30;80.50;;;;;;5038773;27;95335;-44
2023/10/31 09:55:47;;;;;;;;;;;17.30;80.50;;;;;;5038716;27;96045;-44
2023/10/31 09:58:12;;;;;;;;;;;17.30;80.70;;;;;;5034665;27;96073;-45
2023/10/31 10:00:40;;;;;;;;;;;17.30;80.80;;;;;;5031981;27;94760;-45
2023/10/31 10:03:11;;;;;;;;;;;17.30;80.70;;;;;;5032852;27;95744;-44
2023/10/31 10:05:36;;;;;;;;;;;17.30;80.60;;;;;;5036125;27;94875;-44
2023/10/31 10:08:05;;;;;;;;;;;17.30;80.70;;;;;;5030795;27;97611;-45
2023/10/31 10:10:31;;;;;;;;;;;17.30;80.50;;;;;;5031572;27;95132;-44
2023/10/31 10:12:58;;;;;;;;;;;17.30;80.50;;;;;;5035498;27;94049;-44
2023/10/31 10:15:24;;;;;;;;;;;17.40;80.70;;;;;;5025197;27;95426;-44
2023/10/31 10:17:50;;;;;;;;;;;17.40;80.70;;;;;;5030992;27;95202;-44
2023/10/31 10:20:15;;;;;;;;;;;17.40;80.80;;;;;;5030184;27;96459;-45
2023/10/31 10:22:44;;;;;;;;;;;17.40;80.80;;;;;;5039116;27;95887;-45
2023/10/31 10:25:15;;;;;;;;;;;17.40;80.90;;;;;;5042296;27;96050;-44
2023/10/31 10:27:41;;;;;;;;;;;17.40;81.00;;;;;;5031944;27;95296;-44
2023/10/31 10:30:10;;;;;;;;;;;17.40;81.00;;;;;;5035249;27;94595;-45
2023/10/31 10:32:35;;;;;;;;;;;17.30;81.00;;;;;;5035633;27;95029;-45
2023/10/31 10:35:01;;;;;;;;;;;17.40;81.20;;;;;;5036757;27;96103;-44
2023/10/31 10:37:27;;;;;;;;;;;17.40;81.30;;;;;;5035167;27;93950;-45
2023/10/31 10:39:55;;;;;;;;;;;17.40;81.30;;;;;;5035451;27;94265;-46
2023/10/31 10:42:29;;;;;;;;;;;17.40;81.10;;;;;;5036027;27;95629;-45
2023/10/31 10:44:57;;;;;;;;;;;17.40;81.20;;;;;;5038007;27;96092;-45
2023/10/31 10:47:23;;;;;;;;;;;17.40;81.10;;;;;;5040285;27;94783;-45
2023/10/31 10:49:53;;;;;;;;;;;17.40;81.10;;;;;;5044866;27;97571;-45
2023/10/31 10:52:28;;;;;;;;;;;17.40;81.00;;;;;;5036762;27;95587;-45
2023/10/31 10:54:59;;;;;;;;;;;17.40;81.20;;;;;;5032510;27;94673;-45
2023/10/31 10:57:48;;;;;;;;;;;17.40;81.20;;;;;;5018211;27;94871;-44
2023/10/31 11:00:14;;;;;;;;;;;17.40;81.10;;;;;;5035989;27;95219;-45
2023/10/31 11:02:42;;;;;;;;;;;17.40;81.20;;;;;;5034195;27;93886;-45
2023/10/31 11:05:08;;;;;;;;;;;17.40;81.50;;;;;;5039201;27;94273;-44
2023/10/31 11:07:34;;;;;;;;;;;17.40;81.30;;;;;;5040569;27;94973;-45
2023/10/31 11:10:02;;;;;;;;;;;17.40;81.30;;;;;;5033462;27;97191;-45
2023/10/31 11:12:29;;;;;;;;;;;17.40;81.30;;;;;;5037446;27;94763;-45
2023/10/31 11:14:55;;;;;;;;;;;17.40;81.20;;;;;;5039972;27;95140;-45
2023/10/31 11:17:23;;;;;;;;;;;17.40;81.10;;;;;;5041770;27;94720;-44
2023/10/31 11:19:50;;;;;;;;;;;17.50;81.00;;;;;;5036588;27;94732;-45
2023/10/31 11:22:18;;;;;;;;;;;17.50;81.00;;;;;;5042837;27;94741;-45
2023/10/31 11:24:43;;;;;;;;;;;17.50;80.90;;;;;;5037468;27;94436;-45
2023/10/31 11:27:09;;;;;;;;;;;17.50;80.90;;;;;;5043305;27;94450;-44
2023/10/31 11:29:35;;;;;;;;;;;17.50;80.90;;;;;;5043489;27;95109;-45
2023/10/31 11:32:01;;;;;;;;;;;17.50;80.90;;;;;;5040476;27;94687;-45
2023/10/31 11:34:27;;;;;;;;;;;17.50;80.90;;;;;;5043711;27;95747;-44
2023/10/31 11:36:52;;;;;;;;;;;17.50;80.80;;;;;;5034323;27;94724;-45
2023/10/31 11:39:20;;;;;;;;;;;17.50;80.90;;;;;;5040498;27;94796;-45
2023/10/31 11:41:50;;;;;;;;;;;17.50;80.90;;;;;;5042335;27;94364;-44
2023/10/31 11:44:16;;;;;;;;;;;17.50;80.90;;;;;;5040576;27;95920;-45
2023/10/31 11:46:41;;;;;;;;;;;17.50;80.90;;;;;;5046277;27;93973;-45
2023/10/31 11:49:07;;;;;;;;;;;17.50;80.90;;;;;;5024791;27;95148;-45
2023/10/31 11:51:33;;;;;;;;;;;17.50;80.90;;;;;;5031975;27;94945;-46
2023/10/31 11:54:01;;;;;;;;;;;17.50;80.90;;;;;;5044704;27;95480;-45
2023/10/31 11:56:27;;;;;;;;;;;17.60;80.80;;;;;;5038783;27;95155;-44
2023/10/31 11:58:56;;;;;;;;;;;17.60;80.70;;;;;;5035958;27;95770;-45
2023/10/31 12:01:22;;;;;;;;;;;17.60;81.30;;;;;;5040840;27;98678;-44
2023/10/31 12:03:48;;;;;;;;;;;17.70;81.30;;;;;;5036001;27;94355;-45
2023/10/31 12:06:14;;;;;;;;;;;17.70;81.60;;;;;;5038745;27;94729;-44
2023/10/31 12:08:41;;;;;;;;;;;17.70;81.90;;;;;;5033182;27;95373;-44
2023/10/31 12:11:08;;;;;;;;;;;17.80;82.10;;;;;;5029459;27;95201;-43
2023/10/31 12:13:34;;;;;;;;;;;17.80;81.80;;;;;;5034693;27;96115;-45
2023/10/31 12:16:03;;;;;;;;;;;17.80;81.90;;;;;;5038591;27;94098;-45
2023/10/31 12:18:28;;;;;;;;;;;17.80;81.80;;;;;;5034798;27;95882;-44
2023/10/31 12:20:55;;;;;;;;;;;17.80;81.60;;;;;;5029627;27;95111;-45
2023/10/31 12:23:21;;;;;;;;;;;17.80;81.40;;;;;;5039835;27;100750;-44
2023/10/31 12:25:47;;;;;;;;;;;17.80;81.50;;;;;;5038332;27;95068;-45
2023/10/31 12:28:16;;;;;;;;;;;17.80;82.10;;;;;;5037826;27;95442;-44
2023/10/31 12:30:49;;;;;;;;;;;17.80;81.80;;;;;;5029534;27;95184;-45
2023/10/31 12:33:15;;;;;;;;;;;17.80;81.60;;;;;;5040794;27;95163;-45
2023/10/31 12:35:41;;;;;;;;;;;17.80;81.40;;;;;;5034211;27;95104;-45
2023/10/31 12:38:07;;;;;;;;;;;17.90;81.50;;;;;;5027774;27;94679;-45
2023/10/31 12:40:33;;;;;;;;;;;17.90;81.70;;;;;;5031204;27;95133;-45
2023/10/31 12:42:59;;;;;;;;;;;17.90;81.40;;;;;;5018266;27;95837;-45
2023/10/31 12:45:24;;;;;;;;;;;17.90;81.90;;;;;;5021207;27;96191;-45
2023/10/31 12:48:09;;;;;;;;;;;17.90;82.60;;;;;;5025522;27;96334;-45
2023/10/31 12:50:37;;;;;;;;;;;17.90;82.90;;;;;;5033788;27;95114;-45
2023/10/31 12:53:03;;;;;;;;;;;17.90;83.10;;;;;;5037911;27;94511;-44
2023/10/31 12:55:29;;;;;;;;;;;17.90;83.30;;;;;;5039067;27;94820;-44
2023/10/31 12:57:55;;;;;;;;;;;17.90;83.10;;;;;;5038139;27;94704;-44
2023/10/31 13:00:24;;;;;;;;;;;17.90;83.10;;;;;;5032853;27;95156;-44
2023/10/31 13:02:59;;;;;;;;;;;17.90;83.10;;;;;;5042761;27;94506;-45
2023/10/31 13:05:25;;;;;;;;;;;17.90;83.10;;;;;;5042556;27;94269;-45
2023/10/31 13:07:52;;;;;;;;;;;17.90;83.00;;;;;;5043778;27;94730;-44
2023/10/31 13:10:21;;;;;;;;;;;17.90;82.90;;;;;;5044538;27;94704;-45
2023/10/31 13:12:46;;;;;;;;;;;17.90;82.80;;;;;;5031258;27;96257;-44
2023/10/31 13:15:16;;;;;;;;;;;17.90;82.90;;;;;;5043500;27;93937;-44
2023/10/31 13:17:43;;;;;;;;;;;17.90;82.90;;;;;;5046673;27;95283;-45
2023/10/31 13:20:09;;;;;;;;;;;17.90;82.90;;;;;;5041605;27;95273;-44
2023/10/31 13:22:35;;;;;;;;;;;17.90;82.90;;;;;;5040480;27;94689;-44
2023/10/31 13:25:09;;;;;;;;;;;17.90;82.90;;;;;;5043193;27;94862;-44
2023/10/31 13:27:35;;;;;;;;;;;17.90;82.80;;;;;;5043770;27;95013;-45
2023/10/31 13:30:01;;;;;;;;;;;18.00;82.90;;;;;;5037130;27;93925;-45
2023/10/31 13:32:26;;;;;;;;;;;18.00;82.70;;;;;;5044603;27;94561;-45
2023/10/31 13:34:52;;;;;;;;;;;18.00;82.60;;;;;;5043594;27;94758;-44
2023/10/31 13:37:17;;;;;;;;;;;18.00;82.60;;;;;;5035207;27;99121;-45
2023/10/31 13:39:43;;;;;;;;;;;18.00;82.60;;;;;;5041439;27;95861;-44
2023/10/31 13:42:10;;;;;;;;;;;18.00;82.40;;;;;;5036489;27;94674;-45
2023/10/31 13:44:36;;;;;;;;;;;18.00;82.30;;;;;;5045270;27;96620;-44
2023/10/31 13:47:02;;;;;;;;;;;18.00;82.20;;;;;;5041692;27;95430;-45
2023/10/31 13:49:27;;;;;;;;;;;18.00;82.20;;;;;;5040360;27;94660;-44
2023/10/31 13:51:53;;;;;;;;;;;18.00;82.10;;;;;;5037848;27;95077;-44
2023/10/31 13:54:19;;;;;;;;;;;18.00;82.20;;;;;;5037726;27;94650;-45
2023/10/31 13:56:45;;;;;;;;;;;18.00;82.10;;;;;;5042735;27;98345;-44
2023/10/31 13:59:11;;;;;;;;;;;18.00;82.00;;;;;;5038633;27;94417;-45
2023/10/31 14:01:36;;;;;;;;;;;18.00;82.00;;;;;;5038608;27;95602;-45
2023/10/31 14:04:02;;;;;;;;;;;18.00;81.90;;;;;;5039690;27;94494;-45
2023/10/31 14:06:30;;;;;;;;;;;18.00;81.90;;;;;;5037471;27;94997;-45
2023/10/31 14:08:56;;;;;;;;;;;18.00;81.90;;;;;;5031291;27;94539;-45